sensor_id;sensor_type;location;lat;lon;timestamp;P1;durP1;ratioP1;P2;durP2;ratioP2
21645;SDS011;10984;45.712;4.800;2023-07-02T00:02:23;17.15;;;8.65;;
21645;SDS011;10984;45.712;4.800;2023-07-02T00:04:48;16.10;;;9.68;;
21645;SDS011;10984;45.712;4.800;2023-07-02T00:07:14;15.68;;;9.82;;
21645;SDS011;10984;45.712;4.800;2023-07-02T00:09:40;15.75;;;9.73;;
21645;SDS011;10984;45.712;4.800;2023-07-02T00:12:06;13.43;;;8.18;;
21645;SDS011;10984;45.712;4.800;2023-07-02T00:14:32;17.83;;;10.45;;
21645;SDS011;10984;45.712;4.800;2023-07-02T00:16:58;21.85;;;10.48;;
21645;SDS011;10984;45.712;4.800;2023-07-02T00:19:24;17.45;;;10.52;;
21645;SDS011;10984;45.712;4.800;2023-07-02T00:21:50;17.83;;;9.70;;
21645;SDS011;10984;45.712;4.800;2023-07-02T00:24:15;16.92;;;10.35;;
21645;SDS011;10984;45.712;4.800;2023-07-02T00:26:41;19.35;;;10.10;;
21645;SDS011;10984;45.712;4.800;2023-07-02T00:29:07;19.52;;;10.68;;
21645;SDS011;10984;45.712;4.800;2023-07-02T00:31:34;16.23;;;9.77;;
21645;SDS011;10984;45.712;4.800;2023-07-02T00:34:00;20.85;;;10.38;;
21645;SDS011;10984;45.712;4.800;2023-07-02T00:36:26;16.75;;;10.15;;
21645;SDS011;10984;45.712;4.800;2023-07-02T00:38:52;20.85;;;10.52;;
21645;SDS011;10984;45.712;4.800;2023-07-02T00:41:18;19.40;;;10.65;;
21645;SDS011;10984;45.712;4.800;2023-07-02T00:43:43;20.10;;;10.35;;
21645;SDS011;10984;45.712;4.800;2023-07-02T00:48:55;17.40;;;9.57;;
21645;SDS011;10984;45.712;4.800;2023-07-02T00:51:24;18.55;;;10.52;;
21645;SDS011;10984;45.712;4.800;2023-07-02T00:53:52;21.48;;;11.05;;
21645;SDS011;10984;45.712;4.800;2023-07-02T00:56:19;19.38;;;10.18;;
21645;SDS011;10984;45.712;4.800;2023-07-02T00:58:46;20.33;;;11.40;;
21645;SDS011;10984;45.712;4.800;2023-07-02T01:04:03;20.02;;;12.00;;
21645;SDS011;10984;45.712;4.800;2023-07-02T01:09:14;19.27;;;11.35;;
21645;SDS011;10984;45.712;4.800;2023-07-02T01:11:42;18.67;;;11.40;;
21645;SDS011;10984;45.712;4.800;2023-07-02T01:16:55;29.55;;;11.90;;
21645;SDS011;10984;45.712;4.800;2023-07-02T01:19:30;18.00;;;11.02;;
21645;SDS011;10984;45.712;4.800;2023-07-02T01:22:16;16.33;;;10.02;;
21645;SDS011;10984;45.712;4.800;2023-07-02T01:24:43;19.98;;;11.50;;
21645;SDS011;10984;45.712;4.800;2023-07-02T01:27:12;19.95;;;12.00;;
21645;SDS011;10984;45.712;4.800;2023-07-02T01:29:38;21.80;;;10.52;;
21645;SDS011;10984;45.712;4.800;2023-07-02T01:32:04;21.42;;;11.35;;
21645;SDS011;10984;45.712;4.800;2023-07-02T01:34:30;19.83;;;11.23;;
21645;SDS011;10984;45.712;4.800;2023-07-02T01:36:56;21.02;;;11.30;;
21645;SDS011;10984;45.712;4.800;2023-07-02T01:39:21;21.98;;;11.63;;
21645;SDS011;10984;45.712;4.800;2023-07-02T01:44:50;21.17;;;11.15;;
21645;SDS011;10984;45.712;4.800;2023-07-02T01:47:16;17.73;;;11.45;;
21645;SDS011;10984;45.712;4.800;2023-07-02T01:49:42;19.23;;;10.27;;
21645;SDS011;10984;45.712;4.800;2023-07-02T01:52:08;17.77;;;10.95;;
21645;SDS011;10984;45.712;4.800;2023-07-02T01:54:35;21.17;;;12.10;;
21645;SDS011;10984;45.712;4.800;2023-07-02T01:57:01;21.50;;;12.10;;
21645;SDS011;10984;45.712;4.800;2023-07-02T01:59:27;22.30;;;12.68;;
21645;SDS011;10984;45.712;4.800;2023-07-02T02:01:53;21.00;;;11.95;;
21645;SDS011;10984;45.712;4.800;2023-07-02T02:04:18;23.52;;;13.13;;
21645;SDS011;10984;45.712;4.800;2023-07-02T02:06:44;19.85;;;10.57;;
21645;SDS011;10984;45.712;4.800;2023-07-02T02:09:10;20.98;;;12.23;;
21645;SDS011;10984;45.712;4.800;2023-07-02T02:14:20;26.38;;;12.32;;
21645;SDS011;10984;45.712;4.800;2023-07-02T02:16:46;21.13;;;11.90;;
21645;SDS011;10984;45.712;4.800;2023-07-02T02:19:12;21.90;;;12.05;;
21645;SDS011;10984;45.712;4.800;2023-07-02T02:21:39;25.45;;;12.35;;
21645;SDS011;10984;45.712;4.800;2023-07-02T02:24:06;22.15;;;11.77;;
21645;SDS011;10984;45.712;4.800;2023-07-02T02:26:35;22.20;;;12.20;;
21645;SDS011;10984;45.712;4.800;2023-07-02T02:29:01;20.67;;;11.60;;
21645;SDS011;10984;45.712;4.800;2023-07-02T02:31:26;21.00;;;11.25;;
21645;SDS011;10984;45.712;4.800;2023-07-02T02:33:53;19.63;;;10.75;;
21645;SDS011;10984;45.712;4.800;2023-07-02T02:36:18;22.73;;;11.77;;
21645;SDS011;10984;45.712;4.800;2023-07-02T02:38:44;22.42;;;11.65;;
21645;SDS011;10984;45.712;4.800;2023-07-02T02:41:10;19.92;;;11.63;;
21645;SDS011;10984;45.712;4.800;2023-07-02T02:43:35;23.40;;;11.93;;
21645;SDS011;10984;45.712;4.800;2023-07-02T02:46:01;23.15;;;13.73;;
21645;SDS011;10984;45.712;4.800;2023-07-02T02:48:27;25.50;;;12.70;;
21645;SDS011;10984;45.712;4.800;2023-07-02T02:50:52;24.10;;;12.23;;
21645;SDS011;10984;45.712;4.800;2023-07-02T02:53:18;27.38;;;13.02;;
21645;SDS011;10984;45.712;4.800;2023-07-02T02:55:43;21.20;;;12.38;;
21645;SDS011;10984;45.712;4.800;2023-07-02T02:58:09;20.13;;;11.45;;
21645;SDS011;10984;45.712;4.800;2023-07-02T03:00:35;24.70;;;12.15;;
21645;SDS011;10984;45.712;4.800;2023-07-02T03:03:00;22.92;;;12.23;;
21645;SDS011;10984;45.712;4.800;2023-07-02T03:05:27;20.33;;;12.45;;
21645;SDS011;10984;45.712;4.800;2023-07-02T03:07:53;21.05;;;11.88;;
21645;SDS011;10984;45.712;4.800;2023-07-02T03:10:19;23.02;;;13.23;;
21645;SDS011;10984;45.712;4.800;2023-07-02T03:12:44;24.35;;;12.77;;
21645;SDS011;10984;45.712;4.800;2023-07-02T03:15:10;21.25;;;11.95;;
21645;SDS011;10984;45.712;4.800;2023-07-02T03:17:36;21.77;;;11.70;;
21645;SDS011;10984;45.712;4.800;2023-07-02T03:20:02;24.05;;;11.70;;
21645;SDS011;10984;45.712;4.800;2023-07-02T03:22:46;21.90;;;12.13;;
21645;SDS011;10984;45.712;4.800;2023-07-02T03:25:12;24.45;;;11.80;;
21645;SDS011;10984;45.712;4.800;2023-07-02T03:27:38;20.58;;;11.50;;
21645;SDS011;10984;45.712;4.800;2023-07-02T03:30:04;25.95;;;12.60;;
21645;SDS011;10984;45.712;4.800;2023-07-02T03:32:30;25.00;;;13.30;;
21645;SDS011;10984;45.712;4.800;2023-07-02T03:34:55;24.08;;;12.65;;
21645;SDS011;10984;45.712;4.800;2023-07-02T03:37:21;19.75;;;11.23;;
21645;SDS011;10984;45.712;4.800;2023-07-02T03:39:47;21.58;;;10.90;;
21645;SDS011;10984;45.712;4.800;2023-07-02T03:42:12;23.85;;;13.43;;
21645;SDS011;10984;45.712;4.800;2023-07-02T03:44:38;23.13;;;12.27;;
21645;SDS011;10984;45.712;4.800;2023-07-02T03:47:03;19.52;;;12.43;;
21645;SDS011;10984;45.712;4.800;2023-07-02T03:49:30;21.52;;;11.77;;
21645;SDS011;10984;45.712;4.800;2023-07-02T03:51:55;22.10;;;12.70;;
21645;SDS011;10984;45.712;4.800;2023-07-02T03:54:21;21.23;;;11.90;;
21645;SDS011;10984;45.712;4.800;2023-07-02T03:56:47;22.77;;;12.68;;
21645;SDS011;10984;45.712;4.800;2023-07-02T03:59:12;21.95;;;12.45;;
21645;SDS011;10984;45.712;4.800;2023-07-02T04:01:38;27.10;;;12.80;;
21645;SDS011;10984;45.712;4.800;2023-07-02T04:04:03;19.58;;;11.52;;
21645;SDS011;10984;45.712;4.800;2023-07-02T04:06:29;22.25;;;12.48;;
21645;SDS011;10984;45.712;4.800;2023-07-02T04:08:55;21.83;;;12.15;;
21645;SDS011;10984;45.712;4.800;2023-07-02T04:11:20;21.05;;;12.20;;
21645;SDS011;10984;45.712;4.800;2023-07-02T04:13:46;30.40;;;12.85;;
21645;SDS011;10984;45.712;4.800;2023-07-02T04:16:12;21.60;;;12.85;;
21645;SDS011;10984;45.712;4.800;2023-07-02T04:18:38;22.90;;;13.43;;
21645;SDS011;10984;45.712;4.800;2023-07-02T04:21:03;26.63;;;12.35;;
21645;SDS011;10984;45.712;4.800;2023-07-02T04:23:29;22.83;;;12.32;;
21645;SDS011;10984;45.712;4.800;2023-07-02T04:25:55;23.48;;;12.98;;
21645;SDS011;10984;45.712;4.800;2023-07-02T04:28:20;20.42;;;12.30;;
21645;SDS011;10984;45.712;4.800;2023-07-02T04:30:46;22.85;;;12.25;;
21645;SDS011;10984;45.712;4.800;2023-07-02T04:33:14;22.17;;;12.73;;
21645;SDS011;10984;45.712;4.800;2023-07-02T04:35:40;20.83;;;11.65;;
21645;SDS011;10984;45.712;4.800;2023-07-02T04:38:06;21.10;;;12.68;;
21645;SDS011;10984;45.712;4.800;2023-07-02T04:40:32;21.70;;;12.13;;
21645;SDS011;10984;45.712;4.800;2023-07-02T04:42:58;21.45;;;12.35;;
21645;SDS011;10984;45.712;4.800;2023-07-02T04:45:24;19.98;;;11.93;;
21645;SDS011;10984;45.712;4.800;2023-07-02T04:47:51;21.20;;;12.02;;
21645;SDS011;10984;45.712;4.800;2023-07-02T04:50:17;19.88;;;13.02;;
21645;SDS011;10984;45.712;4.800;2023-07-02T04:52:43;22.45;;;13.15;;
21645;SDS011;10984;45.712;4.800;2023-07-02T04:55:09;23.58;;;13.38;;
21645;SDS011;10984;45.712;4.800;2023-07-02T04:57:36;24.65;;;11.80;;
21645;SDS011;10984;45.712;4.800;2023-07-02T05:00:02;22.15;;;12.95;;
21645;SDS011;10984;45.712;4.800;2023-07-02T05:02:29;23.65;;;13.18;;
21645;SDS011;10984;45.712;4.800;2023-07-02T05:04:54;20.92;;;12.07;;
21645;SDS011;10984;45.712;4.800;2023-07-02T05:07:20;29.98;;;13.32;;
21645;SDS011;10984;45.712;4.800;2023-07-02T05:09:46;21.92;;;12.73;;
21645;SDS011;10984;45.712;4.800;2023-07-02T05:12:13;22.98;;;12.68;;
21645;SDS011;10984;45.712;4.800;2023-07-02T05:14:39;26.80;;;13.85;;
21645;SDS011;10984;45.712;4.800;2023-07-02T05:17:04;23.27;;;12.50;;
21645;SDS011;10984;45.712;4.800;2023-07-02T05:19:30;24.90;;;13.07;;
21645;SDS011;10984;45.712;4.800;2023-07-02T05:21:56;21.98;;;13.18;;
21645;SDS011;10984;45.712;4.800;2023-07-02T05:24:22;21.85;;;12.07;;
21645;SDS011;10984;45.712;4.800;2023-07-02T05:26:47;24.40;;;13.30;;
21645;SDS011;10984;45.712;4.800;2023-07-02T05:29:13;21.80;;;12.27;;
21645;SDS011;10984;45.712;4.800;2023-07-02T05:31:39;22.17;;;11.93;;
21645;SDS011;10984;45.712;4.800;2023-07-02T05:34:05;18.75;;;11.63;;
21645;SDS011;10984;45.712;4.800;2023-07-02T05:36:30;20.40;;;12.27;;
21645;SDS011;10984;45.712;4.800;2023-07-02T05:38:56;22.42;;;12.20;;
21645;SDS011;10984;45.712;4.800;2023-07-02T05:41:22;21.77;;;12.45;;
21645;SDS011;10984;45.712;4.800;2023-07-02T05:43:48;20.95;;;12.60;;
21645;SDS011;10984;45.712;4.800;2023-07-02T05:46:14;19.67;;;12.00;;
21645;SDS011;10984;45.712;4.800;2023-07-02T05:48:40;19.65;;;11.75;;
21645;SDS011;10984;45.712;4.800;2023-07-02T05:51:07;18.67;;;10.98;;
21645;SDS011;10984;45.712;4.800;2023-07-02T05:53:33;20.00;;;11.32;;
21645;SDS011;10984;45.712;4.800;2023-07-02T05:55:59;17.70;;;11.30;;
21645;SDS011;10984;45.712;4.800;2023-07-02T05:58:25;19.30;;;11.98;;
21645;SDS011;10984;45.712;4.800;2023-07-02T06:00:50;21.25;;;12.13;;
21645;SDS011;10984;45.712;4.800;2023-07-02T06:06:00;17.27;;;10.90;;
21645;SDS011;10984;45.712;4.800;2023-07-02T06:08:26;18.98;;;11.18;;
21645;SDS011;10984;45.712;4.800;2023-07-02T06:10:52;20.40;;;10.88;;
21645;SDS011;10984;45.712;4.800;2023-07-02T06:13:18;17.95;;;10.85;;
21645;SDS011;10984;45.712;4.800;2023-07-02T06:15:43;18.00;;;11.23;;
21645;SDS011;10984;45.712;4.800;2023-07-02T06:18:10;16.98;;;10.60;;
21645;SDS011;10984;45.712;4.800;2023-07-02T06:20:35;17.92;;;10.82;;
21645;SDS011;10984;45.712;4.800;2023-07-02T06:23:01;22.40;;;11.10;;
21645;SDS011;10984;45.712;4.800;2023-07-02T06:25:26;20.52;;;11.23;;
21645;SDS011;10984;45.712;4.800;2023-07-02T06:27:52;21.20;;;10.90;;
21645;SDS011;10984;45.712;4.800;2023-07-02T06:30:21;18.48;;;10.15;;
21645;SDS011;10984;45.712;4.800;2023-07-02T06:32:47;20.55;;;11.55;;
21645;SDS011;10984;45.712;4.800;2023-07-02T06:35:12;20.63;;;11.60;;
21645;SDS011;10984;45.712;4.800;2023-07-02T06:37:38;20.38;;;10.93;;
21645;SDS011;10984;45.712;4.800;2023-07-02T06:40:04;20.02;;;10.52;;
21645;SDS011;10984;45.712;4.800;2023-07-02T06:42:30;21.42;;;11.45;;
21645;SDS011;10984;45.712;4.800;2023-07-02T06:44:56;18.48;;;10.98;;
21645;SDS011;10984;45.712;4.800;2023-07-02T06:47:22;16.70;;;9.93;;
21645;SDS011;10984;45.712;4.800;2023-07-02T06:49:47;20.15;;;11.65;;
21645;SDS011;10984;45.712;4.800;2023-07-02T06:52:13;22.33;;;11.35;;
21645;SDS011;10984;45.712;4.800;2023-07-02T06:54:38;21.40;;;10.98;;
21645;SDS011;10984;45.712;4.800;2023-07-02T06:57:04;22.23;;;11.00;;
21645;SDS011;10984;45.712;4.800;2023-07-02T06:59:30;22.45;;;10.88;;
21645;SDS011;10984;45.712;4.800;2023-07-02T07:01:56;20.38;;;11.02;;
21645;SDS011;10984;45.712;4.800;2023-07-02T07:04:21;17.65;;;10.57;;
21645;SDS011;10984;45.712;4.800;2023-07-02T07:06:47;17.35;;;9.40;;
21645;SDS011;10984;45.712;4.800;2023-07-02T07:09:13;18.65;;;10.27;;
21645;SDS011;10984;45.712;4.800;2023-07-02T07:11:38;19.20;;;10.13;;
21645;SDS011;10984;45.712;4.800;2023-07-02T07:14:04;16.50;;;8.98;;
21645;SDS011;10984;45.712;4.800;2023-07-02T07:16:29;15.27;;;8.82;;
21645;SDS011;10984;45.712;4.800;2023-07-02T07:18:55;14.88;;;8.68;;
21645;SDS011;10984;45.712;4.800;2023-07-02T07:21:20;18.27;;;8.88;;
21645;SDS011;10984;45.712;4.800;2023-07-02T07:23:47;15.32;;;8.40;;
21645;SDS011;10984;45.712;4.800;2023-07-02T07:26:13;15.55;;;8.88;;
21645;SDS011;10984;45.712;4.800;2023-07-02T07:28:39;14.27;;;7.90;;
21645;SDS011;10984;45.712;4.800;2023-07-02T07:31:05;16.23;;;8.70;;
21645;SDS011;10984;45.712;4.800;2023-07-02T07:33:30;14.70;;;7.75;;
21645;SDS011;10984;45.712;4.800;2023-07-02T07:35:56;14.95;;;7.65;;
21645;SDS011;10984;45.712;4.800;2023-07-02T07:38:22;13.30;;;6.15;;
21645;SDS011;10984;45.712;4.800;2023-07-02T07:40:47;14.73;;;7.65;;
21645;SDS011;10984;45.712;4.800;2023-07-02T07:43:13;12.57;;;7.43;;
21645;SDS011;10984;45.712;4.800;2023-07-02T07:45:39;12.95;;;7.25;;
21645;SDS011;10984;45.712;4.800;2023-07-02T07:48:05;13.25;;;6.50;;
21645;SDS011;10984;45.712;4.800;2023-07-02T07:50:30;12.57;;;7.38;;
21645;SDS011;10984;45.712;4.800;2023-07-02T07:52:56;13.32;;;6.03;;
21645;SDS011;10984;45.712;4.800;2023-07-02T07:55:22;13.90;;;6.80;;
21645;SDS011;10984;45.712;4.800;2023-07-02T07:57:47;11.38;;;6.68;;
21645;SDS011;10984;45.712;4.800;2023-07-02T08:00:13;13.52;;;6.47;;
21645;SDS011;10984;45.712;4.800;2023-07-02T08:02:39;10.52;;;5.28;;
21645;SDS011;10984;45.712;4.800;2023-07-02T08:05:05;11.48;;;5.13;;
21645;SDS011;10984;45.712;4.800;2023-07-02T08:07:31;10.95;;;5.35;;
21645;SDS011;10984;45.712;4.800;2023-07-02T08:09:58;10.57;;;5.55;;
21645;SDS011;10984;45.712;4.800;2023-07-02T08:12:23;10.75;;;4.88;;
21645;SDS011;10984;45.712;4.800;2023-07-02T08:14:51;10.50;;;4.97;;
21645;SDS011;10984;45.712;4.800;2023-07-02T08:17:17;9.30;;;4.65;;
21645;SDS011;10984;45.712;4.800;2023-07-02T08:19:43;10.63;;;5.13;;
21645;SDS011;10984;45.712;4.800;2023-07-02T08:22:08;10.23;;;4.68;;
21645;SDS011;10984;45.712;4.800;2023-07-02T08:24:34;11.80;;;5.43;;
21645;SDS011;10984;45.712;4.800;2023-07-02T08:27:00;11.95;;;4.20;;
21645;SDS011;10984;45.712;4.800;2023-07-02T08:29:27;9.80;;;4.93;;
21645;SDS011;10984;45.712;4.800;2023-07-02T08:32:12;10.38;;;5.38;;
21645;SDS011;10984;45.712;4.800;2023-07-02T08:34:38;8.77;;;4.40;;
21645;SDS011;10984;45.712;4.800;2023-07-02T08:37:04;9.48;;;4.68;;
21645;SDS011;10984;45.712;4.800;2023-07-02T08:39:29;11.70;;;5.18;;
21645;SDS011;10984;45.712;4.800;2023-07-02T08:41:56;12.18;;;5.72;;
21645;SDS011;10984;45.712;4.800;2023-07-02T08:44:21;11.50;;;5.85;;
21645;SDS011;10984;45.712;4.800;2023-07-02T08:46:47;9.88;;;5.65;;
21645;SDS011;10984;45.712;4.800;2023-07-02T08:49:31;12.90;;;5.95;;
21645;SDS011;10984;45.712;4.800;2023-07-02T08:51:57;9.68;;;5.30;;
21645;SDS011;10984;45.712;4.800;2023-07-02T08:54:23;9.88;;;4.68;;
21645;SDS011;10984;45.712;4.800;2023-07-02T08:56:49;8.15;;;4.68;;
21645;SDS011;10984;45.712;4.800;2023-07-02T08:59:14;8.52;;;4.82;;
21645;SDS011;10984;45.712;4.800;2023-07-02T09:04:24;9.02;;;4.95;;
21645;SDS011;10984;45.712;4.800;2023-07-02T09:07:02;11.60;;;5.50;;
21645;SDS011;10984;45.712;4.800;2023-07-02T09:09:47;12.48;;;5.45;;
21645;SDS011;10984;45.712;4.800;2023-07-02T09:17:34;11.93;;;5.38;;
21645;SDS011;10984;45.712;4.800;2023-07-02T09:20:02;10.20;;;5.10;;
21645;SDS011;10984;45.712;4.800;2023-07-02T09:22:32;11.23;;;5.68;;
21645;SDS011;10984;45.712;4.800;2023-07-02T09:24:58;9.25;;;5.03;;
21645;SDS011;10984;45.712;4.800;2023-07-02T09:30:10;9.48;;;4.97;;
21645;SDS011;10984;45.712;4.800;2023-07-02T09:32:38;9.65;;;4.97;;
21645;SDS011;10984;45.712;4.800;2023-07-02T09:35:05;9.90;;;5.03;;
21645;SDS011;10984;45.712;4.800;2023-07-02T09:37:31;9.02;;;5.22;;
21645;SDS011;10984;45.712;4.800;2023-07-02T09:39:57;7.30;;;4.63;;
21645;SDS011;10984;45.712;4.800;2023-07-02T09:42:24;8.73;;;4.70;;
21645;SDS011;10984;45.712;4.800;2023-07-02T09:47:37;9.05;;;4.65;;
21645;SDS011;10984;45.712;4.800;2023-07-02T09:50:09;8.07;;;4.35;;
21645;SDS011;10984;45.712;4.800;2023-07-02T09:52:36;9.73;;;4.38;;
21645;SDS011;10984;45.712;4.800;2023-07-02T09:55:03;8.85;;;3.92;;
21645;SDS011;10984;45.712;4.800;2023-07-02T09:57:29;8.05;;;4.13;;
21645;SDS011;10984;45.712;4.800;2023-07-02T09:59:56;6.53;;;3.42;;
21645;SDS011;10984;45.712;4.800;2023-07-02T10:02:24;7.13;;;4.13;;
21645;SDS011;10984;45.712;4.800;2023-07-02T10:04:49;7.53;;;4.22;;
21645;SDS011;10984;45.712;4.800;2023-07-02T10:10:04;10.00;;;4.60;;
21645;SDS011;10984;45.712;4.800;2023-07-02T10:12:31;8.00;;;4.80;;
21645;SDS011;10984;45.712;4.800;2023-07-02T10:14:58;8.82;;;4.63;;
21645;SDS011;10984;45.712;4.800;2023-07-02T10:20:19;9.68;;;5.15;;
21645;SDS011;10984;45.712;4.800;2023-07-02T10:22:55;10.68;;;5.53;;
21645;SDS011;10984;45.712;4.800;2023-07-02T10:30:52;10.10;;;5.60;;
21645;SDS011;10984;45.712;4.800;2023-07-02T10:33:18;10.57;;;5.88;;
21645;SDS011;10984;45.712;4.800;2023-07-02T10:35:46;10.00;;;5.38;;
21645;SDS011;10984;45.712;4.800;2023-07-02T10:40:59;8.10;;;4.53;;
21645;SDS011;10984;45.712;4.800;2023-07-02T10:46:09;10.05;;;4.60;;
21645;SDS011;10984;45.712;4.800;2023-07-02T10:51:29;21.10;;;5.85;;
21645;SDS011;10984;45.712;4.800;2023-07-02T10:56:40;12.98;;;6.00;;
21645;SDS011;10984;45.712;4.800;2023-07-02T10:59:06;10.40;;;5.28;;
21645;SDS011;10984;45.712;4.800;2023-07-02T11:01:32;9.40;;;5.22;;
21645;SDS011;10984;45.712;4.800;2023-07-02T11:03:58;10.95;;;5.38;;
21645;SDS011;10984;45.712;4.800;2023-07-02T11:06:43;14.27;;;5.55;;
21645;SDS011;10984;45.712;4.800;2023-07-02T11:11:56;9.85;;;5.20;;
21645;SDS011;10984;45.712;4.800;2023-07-02T11:17:07;9.30;;;4.18;;
21645;SDS011;10984;45.712;4.800;2023-07-02T11:19:33;8.80;;;4.07;;
21645;SDS011;10984;45.712;4.800;2023-07-02T11:22:00;7.53;;;3.90;;
21645;SDS011;10984;45.712;4.800;2023-07-02T11:24:28;6.32;;;3.75;;
21645;SDS011;10984;45.712;4.800;2023-07-02T11:26:55;8.32;;;4.10;;
21645;SDS011;10984;45.712;4.800;2023-07-02T11:29:21;7.30;;;4.20;;
21645;SDS011;10984;45.712;4.800;2023-07-02T11:31:47;7.60;;;4.15;;
21645;SDS011;10984;45.712;4.800;2023-07-02T11:36:57;7.80;;;4.10;;
21645;SDS011;10984;45.712;4.800;2023-07-02T11:39:23;5.05;;;2.50;;
21645;SDS011;10984;45.712;4.800;2023-07-02T11:41:49;4.45;;;2.50;;
21645;SDS011;10984;45.712;4.800;2023-07-02T11:44:15;6.35;;;3.42;;
21645;SDS011;10984;45.712;4.800;2023-07-02T11:46:42;5.75;;;2.10;;
21645;SDS011;10984;45.712;4.800;2023-07-02T11:49:07;8.10;;;2.95;;
21645;SDS011;10984;45.712;4.800;2023-07-02T11:51:34;4.65;;;2.22;;
21645;SDS011;10984;45.712;4.800;2023-07-02T11:54:19;3.70;;;1.90;;
21645;SDS011;10984;45.712;4.800;2023-07-02T11:56:45;3.97;;;1.83;;
21645;SDS011;10984;45.712;4.800;2023-07-02T11:59:10;4.35;;;2.03;;
21645;SDS011;10984;45.712;4.800;2023-07-02T12:01:36;4.00;;;1.65;;
21645;SDS011;10984;45.712;4.800;2023-07-02T12:04:02;4.32;;;1.80;;
21645;SDS011;10984;45.712;4.800;2023-07-02T12:06:28;4.20;;;1.33;;
21645;SDS011;10984;45.712;4.800;2023-07-02T12:08:53;2.85;;;1.40;;
21645;SDS011;10984;45.712;4.800;2023-07-02T12:11:19;4.55;;;1.60;;
21645;SDS011;10984;45.712;4.800;2023-07-02T12:13:45;3.17;;;1.58;;
21645;SDS011;10984;45.712;4.800;2023-07-02T12:16:11;3.47;;;1.50;;
21645;SDS011;10984;45.712;4.800;2023-07-02T12:18:36;4.50;;;1.75;;
21645;SDS011;10984;45.712;4.800;2023-07-02T12:21:02;3.30;;;1.20;;
21645;SDS011;10984;45.712;4.800;2023-07-02T12:23:28;3.50;;;1.42;;
21645;SDS011;10984;45.712;4.800;2023-07-02T12:25:53;2.65;;;1.17;;
21645;SDS011;10984;45.712;4.800;2023-07-02T12:28:19;2.90;;;1.15;;
21645;SDS011;10984;45.712;4.800;2023-07-02T12:30:45;3.47;;;1.38;;
21645;SDS011;10984;45.712;4.800;2023-07-02T12:33:10;3.70;;;1.42;;
21645;SDS011;10984;45.712;4.800;2023-07-02T12:35:36;3.17;;;1.58;;
21645;SDS011;10984;45.712;4.800;2023-07-02T12:38:01;3.15;;;1.33;;
21645;SDS011;10984;45.712;4.800;2023-07-02T12:40:28;3.15;;;1.52;;
21645;SDS011;10984;45.712;4.800;2023-07-02T12:42:54;5.32;;;1.95;;
21645;SDS011;10984;45.712;4.800;2023-07-02T12:45:21;3.60;;;1.60;;
21645;SDS011;10984;45.712;4.800;2023-07-02T12:47:47;3.13;;;1.45;;
21645;SDS011;10984;45.712;4.800;2023-07-02T12:50:12;4.07;;;1.80;;
21645;SDS011;10984;45.712;4.800;2023-07-02T12:52:38;3.00;;;1.15;;
21645;SDS011;10984;45.712;4.800;2023-07-02T12:55:04;2.47;;;1.08;;
21645;SDS011;10984;45.712;4.800;2023-07-02T12:57:30;3.17;;;1.08;;
21645;SDS011;10984;45.712;4.800;2023-07-02T12:59:56;3.28;;;1.42;;
21645;SDS011;10984;45.712;4.800;2023-07-02T13:02:22;3.17;;;1.52;;
21645;SDS011;10984;45.712;4.800;2023-07-02T13:04:48;3.20;;;1.30;;
21645;SDS011;10984;45.712;4.800;2023-07-02T13:07:14;3.92;;;1.50;;
21645;SDS011;10984;45.712;4.800;2023-07-02T13:09:40;2.65;;;1.35;;
21645;SDS011;10984;45.712;4.800;2023-07-02T13:12:06;3.92;;;1.80;;
21645;SDS011;10984;45.712;4.800;2023-07-02T13:14:33;3.85;;;1.90;;
21645;SDS011;10984;45.712;4.800;2023-07-02T13:16:59;3.65;;;1.58;;
21645;SDS011;10984;45.712;4.800;2023-07-02T13:19:25;3.22;;;1.50;;
21645;SDS011;10984;45.712;4.800;2023-07-02T13:21:51;3.28;;;1.63;;
21645;SDS011;10984;45.712;4.800;2023-07-02T13:24:16;4.60;;;1.95;;
21645;SDS011;10984;45.712;4.800;2023-07-02T13:26:42;4.40;;;1.88;;
21645;SDS011;10984;45.712;4.800;2023-07-02T13:29:08;3.78;;;1.77;;
21645;SDS011;10984;45.712;4.800;2023-07-02T13:31:33;3.22;;;1.40;;
21645;SDS011;10984;45.712;4.800;2023-07-02T13:33:59;2.40;;;1.17;;
21645;SDS011;10984;45.712;4.800;2023-07-02T13:36:25;4.03;;;1.70;;
21645;SDS011;10984;45.712;4.800;2023-07-02T13:38:53;4.75;;;1.85;;
21645;SDS011;10984;45.712;4.800;2023-07-02T13:41:19;2.97;;;1.42;;
21645;SDS011;10984;45.712;4.800;2023-07-02T13:43:45;4.03;;;1.75;;
21645;SDS011;10984;45.712;4.800;2023-07-02T13:46:10;5.28;;;1.98;;
21645;SDS011;10984;45.712;4.800;2023-07-02T13:48:36;3.90;;;1.80;;
21645;SDS011;10984;45.712;4.800;2023-07-02T13:51:01;4.00;;;1.85;;
21645;SDS011;10984;45.712;4.800;2023-07-02T13:53:27;4.15;;;1.58;;
21645;SDS011;10984;45.712;4.800;2023-07-02T13:55:53;3.63;;;1.67;;
21645;SDS011;10984;45.712;4.800;2023-07-02T13:58:18;3.63;;;1.77;;
21645;SDS011;10984;45.712;4.800;2023-07-02T14:00:44;3.83;;;1.70;;
21645;SDS011;10984;45.712;4.800;2023-07-02T14:03:09;3.88;;;2.00;;
21645;SDS011;10984;45.712;4.800;2023-07-02T14:05:35;4.18;;;1.92;;
21645;SDS011;10984;45.712;4.800;2023-07-02T14:08:01;3.95;;;1.60;;
21645;SDS011;10984;45.712;4.800;2023-07-02T14:10:26;4.55;;;1.90;;
21645;SDS011;10984;45.712;4.800;2023-07-02T14:12:53;4.72;;;2.20;;
21645;SDS011;10984;45.712;4.800;2023-07-02T14:15:20;6.68;;;1.73;;
21645;SDS011;10984;45.712;4.800;2023-07-02T14:17:46;4.00;;;2.03;;
21645;SDS011;10984;45.712;4.800;2023-07-02T14:20:12;3.47;;;1.85;;
21645;SDS011;10984;45.712;4.800;2023-07-02T14:22:37;5.00;;;2.55;;
21645;SDS011;10984;45.712;4.800;2023-07-02T14:25:03;5.88;;;2.92;;
21645;SDS011;10984;45.712;4.800;2023-07-02T14:27:29;3.75;;;1.98;;
21645;SDS011;10984;45.712;4.800;2023-07-02T14:29:55;5.18;;;2.45;;
21645;SDS011;10984;45.712;4.800;2023-07-02T14:32:21;3.50;;;1.95;;
21645;SDS011;10984;45.712;4.800;2023-07-02T14:34:46;4.88;;;2.25;;
21645;SDS011;10984;45.712;4.800;2023-07-02T14:37:12;4.30;;;2.00;;
21645;SDS011;10984;45.712;4.800;2023-07-02T14:39:38;5.82;;;2.80;;
21645;SDS011;10984;45.712;4.800;2023-07-02T14:42:03;5.95;;;2.75;;
21645;SDS011;10984;45.712;4.800;2023-07-02T14:44:31;6.78;;;2.90;;
21645;SDS011;10984;45.712;4.800;2023-07-02T14:46:57;5.03;;;2.70;;
21645;SDS011;10984;45.712;4.800;2023-07-02T14:49:23;6.70;;;3.50;;
21645;SDS011;10984;45.712;4.800;2023-07-02T14:51:48;8.18;;;3.50;;
21645;SDS011;10984;45.712;4.800;2023-07-02T14:54:14;5.18;;;2.58;;
21645;SDS011;10984;45.712;4.800;2023-07-02T14:56:39;5.95;;;2.88;;
21645;SDS011;10984;45.712;4.800;2023-07-02T14:59:05;7.75;;;2.65;;
21645;SDS011;10984;45.712;4.800;2023-07-02T15:01:32;7.18;;;3.28;;
21645;SDS011;10984;45.712;4.800;2023-07-02T15:03:58;5.20;;;2.75;;
21645;SDS011;10984;45.712;4.800;2023-07-02T15:06:23;7.55;;;4.28;;
21645;SDS011;10984;45.712;4.800;2023-07-02T15:08:49;8.45;;;4.53;;
21645;SDS011;10984;45.712;4.800;2023-07-02T15:11:15;8.88;;;4.97;;
21645;SDS011;10984;45.712;4.800;2023-07-02T15:13:42;9.27;;;3.85;;
21645;SDS011;10984;45.712;4.800;2023-07-02T15:16:08;11.40;;;5.63;;
21645;SDS011;10984;45.712;4.800;2023-07-02T15:18:36;8.65;;;4.70;;
21645;SDS011;10984;45.712;4.800;2023-07-02T15:21:02;9.57;;;5.65;;
21645;SDS011;10984;45.712;4.800;2023-07-02T15:23:28;8.20;;;4.32;;
21645;SDS011;10984;45.712;4.800;2023-07-02T15:25:58;12.60;;;6.32;;
21645;SDS011;10984;45.712;4.800;2023-07-02T15:28:28;10.40;;;5.45;;
21645;SDS011;10984;45.712;4.800;2023-07-02T15:31:16;9.85;;;5.50;;
21645;SDS011;10984;45.712;4.800;2023-07-02T15:33:41;10.80;;;5.38;;